PWSweather.com
Personal Weather Stations
Station Observations
KOMOKA
Komoka Village, Komoka, ON N0L IRO

Komoka VillageKomoka, ON N0L IRO

Lat: 42.9542444, Lon: -81.4348861

Elevation: 805

Station Type: Davis Vantage Pro 2

Latest ConditionsUpdated 10:03:22 PM EDT Monday, Oct 20, 2014
Currently Today's Max Today's Min Today's Average
Temperature 51.3°F10.7°C 55.0°F12.8°C 41.4°F5.2°C 49.3°F9.6°C
Dew Point 45.9°F7.7°C 50.5°F10.3°C 37.2°F2.9°C 44.8°F7.1°C
Winds Calm Calm 3.0 mph SW4.8 kmh SW - 0.2 mph 0.3 kmh
Wind Gusts -- 11.0 mph17.7 kmh - -
Humidity 82% 87% 78% 84%
Pressure 29.86 in1011.2 mb 30.03 in1016.9 mb 29.82 in1009.8 mb -
Precipitation - 0.06 in1.5 mm - -
Hour Temp Dew Point Humidity Winds Wind Gusts Pressure Precip Precip Rate Daily Precip Total
10:03 PM 51.3°F10.7°C 45.9°F7.7°C 82% Calm Calm -- 29.86 in1011.2 mb 0.00 in0.0 mm 0.00 in/hr0.0 mm/hr 0.06 in1.5 mm
09:56 PM 51.3°F10.7°C 45.9°F7.7°C 82% Calm Calm -- 29.85 in1010.8 mb 0.00 in0.0 mm 0.00 in/hr0.0 mm/hr 0.06 in1.5 mm
09:49 PM 51.3°F10.7°C 45.9°F7.7°C 82% Calm Calm -- 29.85 in1010.8 mb 0.00 in0.0 mm 0.00 in/hr0.0 mm/hr 0.06 in1.5 mm
09:42 PM 51.3°F10.7°C 46.2°F7.9°C 83% Calm Calm -- 29.85 in1010.8 mb 0.00 in0.0 mm 0.00 in/hr0.0 mm/hr 0.06 in1.5 mm
09:35 PM 51.3°F10.7°C 46.2°F7.9°C 83% Calm Calm -- 29.85 in1010.8 mb 0.00 in0.0 mm 0.00 in/hr0.0 mm/hr 0.06 in1.5 mm
09:28 PM 51.3°F10.7°C 46.2°F7.9°C 83% Calm Calm -- 29.85 in1010.8 mb 0.00 in0.0 mm 0.00 in/hr0.0 mm/hr 0.06 in1.5 mm
09:21 PM 51.3°F10.7°C 46.2°F7.9°C 83% Calm Calm -- 29.85 in1010.8 mb 0.00 in0.0 mm 0.00 in/hr0.0 mm/hr 0.06 in1.5 mm
09:14 PM 51.3°F10.7°C 46.2°F7.9°C 83% Calm Calm -- 29.85 in1010.8 mb 0.00 in0.0 mm 0.00 in/hr0.0 mm/hr 0.06 in1.5 mm
09:07 PM 51.3°F10.7°C 46.2°F7.9°C 83% Calm Calm -- 29.86 in1011.2 mb 0.00 in0.0 mm 0.00 in/hr0.0 mm/hr 0.06 in1.5 mm
09:00 PM 51.3°F10.7°C 46.2°F7.9°C 83% Calm Calm -- 29.85 in1010.8 mb 0.00 in0.0 mm 0.00 in/hr0.0 mm/hr 0.06 in1.5 mm
08:53 PM 51.3°F10.7°C 46.4°F8.0°C 83% Calm Calm -- 29.86 in1011.2 mb 0.00 in0.0 mm 0.00 in/hr0.0 mm/hr 0.06 in1.5 mm
08:46 PM 51.3°F10.7°C 46.4°F8.0°C 83% Calm Calm -- 29.86 in1011.2 mb 0.00 in0.0 mm 0.00 in/hr0.0 mm/hr 0.06 in1.5 mm
08:39 PM 51.3°F10.7°C 46.4°F8.0°C 83% Calm Calm -- 29.85 in1010.8 mb 0.00 in0.0 mm 0.00 in/hr0.0 mm/hr 0.06 in1.5 mm
08:32 PM 51.4°F10.8°C 46.4°F8.0°C 83% Calm Calm -- 29.85 in1010.8 mb 0.00 in0.0 mm 0.00 in/hr0.0 mm/hr 0.06 in1.5 mm
08:25 PM 51.4°F10.8°C 46.4°F8.0°C 83% Calm Calm -- 29.85 in1010.8 mb 0.00 in0.0 mm 0.00 in/hr0.0 mm/hr 0.06 in1.5 mm
08:18 PM 51.4°F10.8°C 46.4°F8.0°C 83% Calm Calm -- 29.85 in1010.8 mb 0.00 in0.0 mm 0.00 in/hr0.0 mm/hr 0.06 in1.5 mm
08:11 PM 51.4°F10.8°C 46.4°F8.0°C 83% Calm Calm -- 29.85 in1010.8 mb 0.00 in0.0 mm 0.00 in/hr0.0 mm/hr 0.06 in1.5 mm
08:04 PM 51.4°F10.8°C 46.8°F8.2°C 84% Calm Calm -- 29.85 in1010.8 mb 0.00 in0.0 mm 0.00 in/hr0.0 mm/hr 0.06 in1.5 mm
07:57 PM 51.4°F10.8°C 46.8°F8.2°C 84% Calm Calm -- 29.85 in1010.8 mb 0.00 in0.0 mm 0.00 in/hr0.0 mm/hr 0.06 in1.5 mm
07:50 PM 51.4°F10.8°C 46.8°F8.2°C 84% Calm Calm -- 29.85 in1010.8 mb 0.00 in0.0 mm 0.00 in/hr0.0 mm/hr 0.06 in1.5 mm
07:43 PM 51.4°F10.8°C 46.8°F8.2°C 84% Calm Calm -- 29.85 in1010.8 mb 0.00 in0.0 mm 0.00 in/hr0.0 mm/hr 0.06 in1.5 mm
07:36 PM 51.6°F10.9°C 46.9°F8.3°C 84% Calm Calm -- 29.84 in1010.5 mb 0.00 in0.0 mm 0.00 in/hr0.0 mm/hr 0.06 in1.5 mm
07:29 PM 51.6°F10.9°C 46.9°F8.3°C 84% Calm Calm -- 29.84 in1010.5 mb 0.00 in0.0 mm 0.00 in/hr0.0 mm/hr 0.06 in1.5 mm
07:22 PM 51.6°F10.9°C 46.9°F8.3°C 84% Calm Calm -- 29.84 in1010.5 mb 0.00 in0.0 mm 0.00 in/hr0.0 mm/hr 0.06 in1.5 mm
07:15 PM 51.6°F10.9°C 47.3°F8.5°C 85% Calm Calm -- 29.84 in1010.5 mb 0.00 in0.0 mm 0.00 in/hr0.0 mm/hr 0.06 in1.5 mm
07:08 PM 51.8°F11.0°C 47.5°F8.6°C 85% Calm Calm -- 29.84 in1010.5 mb 0.00 in0.0 mm 0.00 in/hr0.0 mm/hr 0.06 in1.5 mm
07:01 PM 52.0°F11.1°C 47.5°F8.6°C 85% Calm Calm -- 29.84 in1010.5 mb 0.00 in0.0 mm 0.00 in/hr0.0 mm/hr 0.06 in1.5 mm
06:54 PM 52.0°F11.1°C 47.5°F8.6°C 85% Calm Calm -- 29.84 in1010.5 mb 0.00 in0.0 mm 0.00 in/hr0.0 mm/hr 0.06 in1.5 mm
06:47 PM 52.0°F11.1°C 47.7°F8.7°C 85% Calm Calm 3.0 mph4.8 kmh 29.83 in1010.2 mb 0.00 in0.0 mm 0.00 in/hr0.0 mm/hr 0.06 in1.5 mm
06:40 PM 52.2°F11.2°C 47.7°F8.7°C 85% Calm Calm 3.0 mph4.8 kmh 29.84 in1010.5 mb 0.00 in0.0 mm 0.00 in/hr0.0 mm/hr 0.06 in1.5 mm
06:33 PM 52.2°F11.2°C 47.8°F8.8°C 85% Calm Calm 3.0 mph4.8 kmh 29.83 in1010.2 mb 0.00 in0.0 mm 0.00 in/hr0.0 mm/hr 0.06 in1.5 mm
06:26 PM 52.3°F11.3°C 48.2°F9.0°C 86% Calm Calm 1.0 mph1.6 kmh 29.83 in1010.2 mb 0.00 in0.0 mm 0.00 in/hr0.0 mm/hr 0.06 in1.5 mm
06:19 PM 52.3°F11.3°C 48.4°F9.1°C 86% Calm Calm 1.0 mph1.6 kmh 29.83 in1010.2 mb 0.00 in0.0 mm 0.00 in/hr0.0 mm/hr 0.06 in1.5 mm
06:12 PM 52.5°F11.4°C 48.6°F9.2°C 86% Calm Calm 1.0 mph1.6 kmh 29.83 in1010.2 mb 0.00 in0.0 mm 0.00 in/hr0.0 mm/hr 0.06 in1.5 mm
06:05 PM 52.7°F11.5°C 48.6°F9.2°C 86% Calm Calm 1.0 mph1.6 kmh 29.83 in1010.2 mb 0.01 in0.3 mm 0.00 in/hr0.0 mm/hr 0.06 in1.5 mm
05:58 PM 52.9°F11.6°C 48.7°F9.3°C 86% Calm Calm -- 29.83 in1010.2 mb 0.01 in0.3 mm 0.00 in/hr0.0 mm/hr 0.06 in1.5 mm
05:51 PM 52.9°F11.6°C 48.7°F9.3°C 86% Calm Calm 3.0 mph4.8 kmh 29.83 in1010.2 mb 0.01 in0.3 mm 0.00 in/hr0.0 mm/hr 0.06 in1.5 mm
05:44 PM 53.1°F11.7°C 49.1°F9.5°C 86% Calm Calm -- 29.82 in1009.8 mb 0.02 in0.5 mm 0.00 in/hr0.0 mm/hr 0.06 in1.5 mm
05:37 PM 53.2°F11.8°C 49.1°F9.5°C 86% Calm Calm -- 29.82 in1009.8 mb 0.02 in0.5 mm 0.00 in/hr0.0 mm/hr 0.06 in1.5 mm
05:30 PM 53.2°F11.8°C 49.5°F9.7°C 87% Calm Calm -- 29.82 in1009.8 mb 0.02 in0.5 mm 0.00 in/hr0.0 mm/hr 0.06 in1.5 mm
05:23 PM 53.2°F11.8°C 49.5°F9.7°C 87% Calm Calm 1.0 mph1.6 kmh 29.83 in1010.2 mb 0.02 in0.5 mm 0.00 in/hr0.0 mm/hr 0.06 in1.5 mm
05:16 PM 53.2°F11.8°C 49.5°F9.7°C 87% Calm Calm -- 29.83 in1010.2 mb 0.02 in0.5 mm 0.00 in/hr0.0 mm/hr 0.06 in1.5 mm
05:09 PM 53.4°F11.9°C 49.6°F9.8°C 87% Calm Calm -- 29.83 in1010.2 mb 0.02 in0.5 mm 0.09 in/hr2.3 mm/hr 0.06 in1.5 mm
05:02 PM 53.4°F11.9°C 49.6°F9.8°C 87% Calm Calm -- 29.82 in1009.8 mb 0.01 in0.3 mm 0.00 in/hr0.0 mm/hr 0.05 in1.3 mm
04:55 PM 53.8°F12.1°C 49.6°F9.8°C 86% Calm Calm 4.0 mph6.4 kmh 29.82 in1009.8 mb 0.01 in0.3 mm 0.00 in/hr0.0 mm/hr 0.05 in1.3 mm
04:48 PM 54.0°F12.2°C 49.8°F9.9°C 86% Calm Calm 4.0 mph6.4 kmh 29.83 in1010.2 mb 0.01 in0.3 mm 0.09 in/hr2.3 mm/hr 0.05 in1.3 mm
04:41 PM 54.1°F12.3°C 50.0°F10.0°C 86% Calm Calm 1.0 mph1.6 kmh 29.83 in1010.2 mb 0.00 in0.0 mm 0.00 in/hr0.0 mm/hr 0.04 in1.0 mm
04:34 PM 54.1°F12.3°C 50.0°F10.0°C 86% Calm Calm 1.0 mph1.6 kmh 29.82 in1009.8 mb 0.00 in0.0 mm 0.00 in/hr0.0 mm/hr 0.04 in1.0 mm
04:27 PM 54.1°F12.3°C 50.0°F10.0°C 86% Calm Calm -- 29.82 in1009.8 mb 0.00 in0.0 mm 0.00 in/hr0.0 mm/hr 0.04 in1.0 mm
04:20 PM 54.1°F12.3°C 49.6°F9.8°C 85% Calm Calm -- 29.82 in1009.8 mb 0.00 in0.0 mm 0.00 in/hr0.0 mm/hr 0.04 in1.0 mm
04:13 PM 54.1°F12.3°C 49.8°F9.9°C 85% Calm Calm 4.0 mph6.4 kmh 29.82 in1009.8 mb 0.00 in0.0 mm 0.00 in/hr0.0 mm/hr 0.04 in1.0 mm
04:06 PM 54.3°F12.4°C 50.4°F10.2°C 86% 1.0 mph WSW1.6 kmh WSW 5.0 mph8.0 kmh 29.82 in1009.8 mb 0.01 in0.3 mm 0.00 in/hr0.0 mm/hr 0.04 in1.0 mm
03:59 PM 54.5°F12.5°C 50.4°F10.2°C 86% Calm Calm 5.0 mph8.0 kmh 29.83 in1010.2 mb 0.01 in0.3 mm 0.00 in/hr0.0 mm/hr 0.04 in1.0 mm
03:52 PM 54.5°F12.5°C 50.4°F10.2°C 86% Calm Calm 5.0 mph8.0 kmh 29.83 in1010.2 mb 0.01 in0.3 mm 0.00 in/hr0.0 mm/hr 0.04 in1.0 mm
03:45 PM 54.3°F12.4°C 50.4°F10.2°C 86% Calm Calm 1.0 mph1.6 kmh 29.83 in1010.2 mb 0.01 in0.3 mm 0.00 in/hr0.0 mm/hr 0.04 in1.0 mm
03:38 PM 54.3°F12.4°C 50.2°F10.1°C 86% Calm Calm 1.0 mph1.6 kmh 29.83 in1010.2 mb 0.01 in0.3 mm 0.00 in/hr0.0 mm/hr 0.04 in1.0 mm
03:31 PM 54.3°F12.4°C 50.4°F10.2°C 86% Calm Calm 3.0 mph4.8 kmh 29.83 in1010.2 mb 0.01 in0.3 mm 0.00 in/hr0.0 mm/hr 0.04 in1.0 mm
03:24 PM 54.7°F12.6°C 50.2°F10.1°C 85% Calm Calm 3.0 mph4.8 kmh 29.82 in1009.8 mb 0.01 in0.3 mm 0.00 in/hr0.0 mm/hr 0.04 in1.0 mm
03:17 PM 54.9°F12.7°C 50.5°F10.3°C 85% Calm Calm 1.0 mph1.6 kmh 29.82 in1009.8 mb 0.01 in0.3 mm 0.09 in/hr2.3 mm/hr 0.04 in1.0 mm
03:10 PM 55.0°F12.8°C 50.0°F10.0°C 83% Calm Calm 4.0 mph6.4 kmh 29.82 in1009.8 mb 0.00 in0.0 mm 0.00 in/hr0.0 mm/hr 0.03 in0.8 mm
03:03 PM 55.0°F12.8°C 50.0°F10.0°C 83% 1.0 mph SW1.6 kmh SW 5.0 mph8.0 kmh 29.82 in1009.8 mb 0.00 in0.0 mm 0.00 in/hr0.0 mm/hr 0.03 in0.8 mm
02:56 PM 55.0°F12.8°C 50.0°F10.0°C 83% 1.0 mph SSW1.6 kmh SSW 5.0 mph8.0 kmh 29.82 in1009.8 mb 0.00 in0.0 mm 0.00 in/hr0.0 mm/hr 0.03 in0.8 mm
02:49 PM 55.0°F12.8°C 50.0°F10.0°C 83% 1.0 mph S1.6 kmh S 5.0 mph8.0 kmh 29.82 in1009.8 mb 0.00 in0.0 mm 0.00 in/hr0.0 mm/hr 0.03 in0.8 mm
02:42 PM 54.9°F12.7°C 50.0°F10.0°C 84% Calm Calm 3.0 mph4.8 kmh 29.82 in1009.8 mb 0.00 in0.0 mm 0.00 in/hr0.0 mm/hr 0.03 in0.8 mm
02:35 PM 54.7°F12.6°C 49.8°F9.9°C 84% 1.0 mph WSW1.6 kmh WSW 5.0 mph8.0 kmh 29.82 in1009.8 mb 0.00 in0.0 mm 0.00 in/hr0.0 mm/hr 0.03 in0.8 mm
02:28 PM 54.3°F12.4°C 49.6°F9.8°C 84% 1.0 mph WSW1.6 kmh WSW 5.0 mph8.0 kmh 29.82 in1009.8 mb 0.00 in0.0 mm 0.00 in/hr0.0 mm/hr 0.03 in0.8 mm
02:21 PM 54.1°F12.3°C 49.8°F9.9°C 85% Calm Calm 4.0 mph6.4 kmh 29.83 in1010.2 mb 0.00 in0.0 mm 0.00 in/hr0.0 mm/hr 0.03 in0.8 mm
02:14 PM 54.0°F12.2°C 49.5°F9.7°C 85% Calm Calm 4.0 mph6.4 kmh 29.83 in1010.2 mb 0.00 in0.0 mm 0.00 in/hr0.0 mm/hr 0.03 in0.8 mm
02:07 PM 53.8°F12.1°C 49.5°F9.7°C 85% 1.0 mph SW1.6 kmh SW 7.0 mph11.3 kmh 29.83 in1010.2 mb 0.00 in0.0 mm 0.00 in/hr0.0 mm/hr 0.03 in0.8 mm
02:00 PM 53.8°F12.1°C 49.3°F9.6°C 85% Calm Calm 7.0 mph11.3 kmh 29.83 in1010.2 mb 0.00 in0.0 mm 0.00 in/hr0.0 mm/hr 0.03 in0.8 mm
01:53 PM 53.4°F11.9°C 49.1°F9.5°C 85% 1.0 mph SSW1.6 kmh SSW 7.0 mph11.3 kmh 29.83 in1010.2 mb 0.00 in0.0 mm 0.00 in/hr0.0 mm/hr 0.03 in0.8 mm
01:46 PM 53.4°F11.9°C 48.9°F9.4°C 85% Calm Calm 8.0 mph12.9 kmh 29.84 in1010.5 mb 0.00 in0.0 mm 0.00 in/hr0.0 mm/hr 0.03 in0.8 mm
01:39 PM 53.2°F11.8°C 48.7°F9.3°C 85% Calm Calm 7.0 mph11.3 kmh 29.84 in1010.5 mb 0.00 in0.0 mm 0.00 in/hr0.0 mm/hr 0.03 in0.8 mm
01:32 PM 52.9°F11.6°C 48.7°F9.3°C 86% Calm Calm 8.0 mph12.9 kmh 29.84 in1010.5 mb 0.00 in0.0 mm 0.00 in/hr0.0 mm/hr 0.03 in0.8 mm
01:25 PM 52.9°F11.6°C 48.7°F9.3°C 86% 1.0 mph SW1.6 kmh SW 8.0 mph12.9 kmh 29.84 in1010.5 mb 0.00 in0.0 mm 0.00 in/hr0.0 mm/hr 0.03 in0.8 mm
01:18 PM 52.7°F11.5°C 48.4°F9.1°C 85% 1.0 mph SW1.6 kmh SW 8.0 mph12.9 kmh 29.84 in1010.5 mb 0.00 in0.0 mm 0.00 in/hr0.0 mm/hr 0.03 in0.8 mm
01:11 PM 52.5°F11.4°C 48.6°F9.2°C 86% 1.0 mph WSW1.6 kmh WSW 7.0 mph11.3 kmh 29.85 in1010.8 mb 0.00 in0.0 mm 0.00 in/hr0.0 mm/hr 0.03 in0.8 mm
01:04 PM 52.5°F11.4°C 48.6°F9.2°C 86% 1.0 mph SW1.6 kmh SW 9.0 mph14.5 kmh 29.85 in1010.8 mb 0.00 in0.0 mm 0.00 in/hr0.0 mm/hr 0.03 in0.8 mm
12:57 PM 52.5°F11.4°C 48.2°F9.0°C 85% 1.0 mph WSW1.6 kmh WSW 9.0 mph14.5 kmh 29.85 in1010.8 mb 0.00 in0.0 mm 0.00 in/hr0.0 mm/hr 0.03 in0.8 mm
12:50 PM 52.5°F11.4°C 48.6°F9.2°C 86% Calm Calm 8.0 mph12.9 kmh 29.86 in1011.2 mb 0.00 in0.0 mm 0.00 in/hr0.0 mm/hr 0.03 in0.8 mm
12:43 PM 52.5°F11.4°C 48.6°F9.2°C 86% Calm Calm 4.0 mph6.4 kmh 29.86 in1011.2 mb 0.00 in0.0 mm 0.00 in/hr0.0 mm/hr 0.03 in0.8 mm
12:36 PM 52.5°F11.4°C 48.4°F9.1°C 86% 1.0 mph SW1.6 kmh SW 11.0 mph17.7 kmh 29.86 in1011.2 mb 0.00 in0.0 mm 0.00 in/hr0.0 mm/hr 0.03 in0.8 mm
12:29 PM 52.3°F11.3°C 48.4°F9.1°C 86% 1.0 mph WSW1.6 kmh WSW 7.0 mph11.3 kmh 29.87 in1011.5 mb 0.00 in0.0 mm 0.00 in/hr0.0 mm/hr 0.03 in0.8 mm
12:22 PM 52.3°F11.3°C 48.4°F9.1°C 86% 3.0 mph SW4.8 kmh SW 11.0 mph17.7 kmh 29.87 in1011.5 mb 0.00 in0.0 mm 0.00 in/hr0.0 mm/hr 0.03 in0.8 mm
12:15 PM 52.3°F11.3°C 48.2°F9.0°C 86% 1.0 mph SW1.6 kmh SW 11.0 mph17.7 kmh 29.87 in1011.5 mb 0.00 in0.0 mm 0.00 in/hr0.0 mm/hr 0.03 in0.8 mm
12:08 PM 52.2°F11.2°C 48.2°F9.0°C 86% 1.0 mph SW1.6 kmh SW 9.0 mph14.5 kmh 29.87 in1011.5 mb 0.00 in0.0 mm 0.00 in/hr0.0 mm/hr 0.03 in0.8 mm
12:01 PM 52.2°F11.2°C 48.4°F9.1°C 87% 1.0 mph WSW1.6 kmh WSW 5.0 mph8.0 kmh 29.88 in1011.9 mb 0.00 in0.0 mm 0.00 in/hr0.0 mm/hr 0.03 in0.8 mm
11:54 AM 52.0°F11.1°C 48.2°F9.0°C 87% 1.0 mph SSW1.6 kmh SSW 8.0 mph12.9 kmh 29.88 in1011.9 mb 0.00 in0.0 mm 0.00 in/hr0.0 mm/hr 0.03 in0.8 mm
11:47 AM 51.6°F10.9°C 48.0°F8.9°C 87% 1.0 mph SW1.6 kmh SW 8.0 mph12.9 kmh 29.88 in1011.9 mb 0.00 in0.0 mm 0.00 in/hr0.0 mm/hr 0.03 in0.8 mm
11:40 AM 51.4°F10.8°C 47.8°F8.8°C 87% Calm Calm 5.0 mph8.0 kmh 29.88 in1011.9 mb 0.00 in0.0 mm 0.00 in/hr0.0 mm/hr 0.03 in0.8 mm
11:33 AM 51.3°F10.7°C 47.5°F8.6°C 87% 1.0 mph WSW1.6 kmh WSW 5.0 mph8.0 kmh 29.88 in1011.9 mb 0.00 in0.0 mm 0.00 in/hr0.0 mm/hr 0.03 in0.8 mm
11:26 AM 51.3°F10.7°C 47.5°F8.6°C 87% 1.0 mph SW1.6 kmh SW 5.0 mph8.0 kmh 29.89 in1012.2 mb 0.00 in0.0 mm 0.00 in/hr0.0 mm/hr 0.03 in0.8 mm
11:19 AM 51.1°F10.6°C 47.3°F8.5°C 87% 1.0 mph SW1.6 kmh SW 5.0 mph8.0 kmh 29.89 in1012.2 mb 0.00 in0.0 mm 0.00 in/hr0.0 mm/hr 0.03 in0.8 mm
11:12 AM 50.9°F10.5°C 47.1°F8.4°C 87% 1.0 mph SW1.6 kmh SW 7.0 mph11.3 kmh 29.89 in1012.2 mb 0.00 in0.0 mm 0.00 in/hr0.0 mm/hr 0.03 in0.8 mm
11:05 AM 50.7°F10.4°C 47.1°F8.4°C 87% 1.0 mph WSW1.6 kmh WSW 5.0 mph8.0 kmh 29.89 in1012.2 mb 0.00 in0.0 mm 0.00 in/hr0.0 mm/hr 0.03 in0.8 mm
10:58 AM 50.5°F10.3°C 46.9°F8.3°C 87% 1.0 mph SW1.6 kmh SW 5.0 mph8.0 kmh 29.89 in1012.2 mb 0.00 in0.0 mm 0.00 in/hr0.0 mm/hr 0.03 in0.8 mm
10:51 AM 50.4°F10.2°C 46.8°F8.2°C 87% 1.0 mph SSW1.6 kmh SSW 9.0 mph14.5 kmh 29.89 in1012.2 mb 0.00 in0.0 mm 0.00 in/hr0.0 mm/hr 0.03 in0.8 mm
10:44 AM 50.2°F10.1°C 46.4°F8.0°C 87% 1.0 mph SW1.6 kmh SW 9.0 mph14.5 kmh 29.90 in1012.5 mb 0.00 in0.0 mm 0.00 in/hr0.0 mm/hr 0.03 in0.8 mm
10:37 AM 50.0°F10.0°C 46.2°F7.9°C 87% 1.0 mph SW1.6 kmh SW 11.0 mph17.7 kmh 29.90 in1012.5 mb 0.00 in0.0 mm 0.00 in/hr0.0 mm/hr 0.03 in0.8 mm
10:30 AM 49.6°F9.8°C 46.0°F7.8°C 87% 1.0 mph SW1.6 kmh SW 7.0 mph11.3 kmh 29.90 in1012.5 mb 0.00 in0.0 mm 0.00 in/hr0.0 mm/hr 0.03 in0.8 mm
10:23 AM 49.5°F9.7°C 45.7°F7.6°C 87% 1.0 mph SW1.6 kmh SW 9.0 mph14.5 kmh 29.90 in1012.5 mb 0.00 in0.0 mm 0.00 in/hr0.0 mm/hr 0.03 in0.8 mm
10:16 AM 49.3°F9.6°C 45.5°F7.5°C 87% 1.0 mph SSW1.6 kmh SSW 9.0 mph14.5 kmh 29.90 in1012.5 mb 0.00 in0.0 mm 0.00 in/hr0.0 mm/hr 0.03 in0.8 mm
10:09 AM 48.9°F9.4°C 45.3°F7.4°C 87% Calm Calm 9.0 mph14.5 kmh 29.90 in1012.5 mb 0.00 in0.0 mm 0.00 in/hr0.0 mm/hr 0.03 in0.8 mm
10:02 AM 48.7°F9.3°C 45.0°F7.2°C 87% Calm Calm 5.0 mph8.0 kmh 29.90 in1012.5 mb 0.00 in0.0 mm 0.00 in/hr0.0 mm/hr 0.03 in0.8 mm
09:55 AM 48.4°F9.1°C 44.8°F7.1°C 87% Calm Calm 5.0 mph8.0 kmh 29.91 in1012.9 mb 0.00 in0.0 mm 0.00 in/hr0.0 mm/hr 0.03 in0.8 mm
09:48 AM 48.4°F9.1°C 44.6°F7.0°C 87% 1.0 mph SSW1.6 kmh SSW 7.0 mph11.3 kmh 29.91 in1012.9 mb 0.00 in0.0 mm 0.00 in/hr0.0 mm/hr 0.03 in0.8 mm
09:41 AM 48.2°F9.0°C 44.6°F7.0°C 87% Calm Calm 4.0 mph6.4 kmh 29.91 in1012.9 mb 0.00 in0.0 mm 0.00 in/hr0.0 mm/hr 0.03 in0.8 mm
09:34 AM 48.0°F8.9°C 44.1°F6.7°C 86% Calm Calm 4.0 mph6.4 kmh 29.91 in1012.9 mb 0.00 in0.0 mm 0.00 in/hr0.0 mm/hr 0.03 in0.8 mm
09:27 AM 47.8°F8.8°C 43.9°F6.6°C 86% Calm Calm 5.0 mph8.0 kmh 29.91 in1012.9 mb 0.00 in0.0 mm 0.00 in/hr0.0 mm/hr 0.03 in0.8 mm
09:20 AM 47.8°F8.8°C 43.9°F6.6°C 86% Calm Calm 3.0 mph4.8 kmh 29.91 in1012.9 mb 0.00 in0.0 mm 0.00 in/hr0.0 mm/hr 0.03 in0.8 mm
09:13 AM 47.7°F8.7°C 43.7°F6.5°C 86% Calm Calm 3.0 mph4.8 kmh 29.91 in1012.9 mb 0.00 in0.0 mm 0.00 in/hr0.0 mm/hr 0.03 in0.8 mm
09:06 AM 47.5°F8.6°C 43.5°F6.4°C 86% Calm Calm 3.0 mph4.8 kmh 29.91 in1012.9 mb 0.00 in0.0 mm 0.00 in/hr0.0 mm/hr 0.03 in0.8 mm
08:59 AM 47.3°F8.5°C 43.3°F6.3°C 86% Calm Calm 3.0 mph4.8 kmh 29.91 in1012.9 mb 0.00 in0.0 mm 0.00 in/hr0.0 mm/hr 0.03 in0.8 mm
08:52 AM 47.1°F8.4°C 43.2°F6.2°C 86% Calm Calm 3.0 mph4.8 kmh 29.91 in1012.9 mb 0.00 in0.0 mm 0.00 in/hr0.0 mm/hr 0.03 in0.8 mm
08:45 AM 47.1°F8.4°C 43.2°F6.2°C 86% Calm Calm 3.0 mph4.8 kmh 29.91 in1012.9 mb 0.00 in0.0 mm 0.00 in/hr0.0 mm/hr 0.03 in0.8 mm
08:38 AM 46.9°F8.3°C 43.0°F6.1°C 86% Calm Calm 1.0 mph1.6 kmh 29.91 in1012.9 mb 0.00 in0.0 mm 0.00 in/hr0.0 mm/hr 0.03 in0.8 mm
08:31 AM 46.9°F8.3°C 43.0°F6.1°C 86% Calm Calm 1.0 mph1.6 kmh 29.91 in1012.9 mb 0.00 in0.0 mm 0.00 in/hr0.0 mm/hr 0.03 in0.8 mm
08:24 AM 46.8°F8.2°C 42.8°F6.0°C 86% Calm Calm 5.0 mph8.0 kmh 29.91 in1012.9 mb 0.00 in0.0 mm 0.00 in/hr0.0 mm/hr 0.03 in0.8 mm
08:17 AM 46.8°F8.2°C 43.0°F6.1°C 87% Calm Calm 3.0 mph4.8 kmh 29.91 in1012.9 mb 0.00 in0.0 mm 0.00 in/hr0.0 mm/hr 0.03 in0.8 mm
08:10 AM 46.8°F8.2°C 42.8°F6.0°C 86% Calm Calm 3.0 mph4.8 kmh 29.91 in1012.9 mb 0.00 in0.0 mm 0.00 in/hr0.0 mm/hr 0.03 in0.8 mm
08:03 AM 46.6°F8.1°C 43.0°F6.1°C 87% Calm Calm -- 29.91 in1012.9 mb 0.00 in0.0 mm 0.00 in/hr0.0 mm/hr 0.03 in0.8 mm
07:56 AM 46.6°F8.1°C 43.0°F6.1°C 87% Calm Calm -- 29.91 in1012.9 mb 0.00 in0.0 mm 0.00 in/hr0.0 mm/hr 0.03 in0.8 mm
07:49 AM 46.6°F8.1°C 43.0°F6.1°C 87% Calm Calm 1.0 mph1.6 kmh 29.91 in1012.9 mb 0.00 in0.0 mm 0.00 in/hr0.0 mm/hr 0.03 in0.8 mm
07:42 AM 46.6°F8.1°C 43.0°F6.1°C 87% Calm Calm 1.0 mph1.6 kmh 29.92 in1013.2 mb 0.00 in0.0 mm 0.00 in/hr0.0 mm/hr 0.03 in0.8 mm
07:35 AM 46.6°F8.1°C 43.0°F6.1°C 87% Calm Calm 1.0 mph1.6 kmh 29.92 in1013.2 mb 0.00 in0.0 mm 0.00 in/hr0.0 mm/hr 0.03 in0.8 mm
07:28 AM 46.6°F8.1°C 43.0°F6.1°C 87% Calm Calm 1.0 mph1.6 kmh 29.92 in1013.2 mb 0.02 in0.5 mm 0.00 in/hr0.0 mm/hr 0.03 in0.8 mm
07:21 AM 46.6°F8.1°C 43.0°F6.1°C 87% Calm Calm 1.0 mph1.6 kmh 29.92 in1013.2 mb 0.03 in0.8 mm 0.00 in/hr0.0 mm/hr 0.03 in0.8 mm
07:14 AM 46.8°F8.2°C 43.0°F6.1°C 87% Calm Calm 3.0 mph4.8 kmh 29.92 in1013.2 mb 0.03 in0.8 mm 0.00 in/hr0.0 mm/hr 0.03 in0.8 mm
07:07 AM 46.8°F8.2°C 43.0°F6.1°C 87% Calm Calm 4.0 mph6.4 kmh 29.92 in1013.2 mb 0.03 in0.8 mm 0.00 in/hr0.0 mm/hr 0.03 in0.8 mm
07:00 AM 46.8°F8.2°C 43.2°F6.2°C 87% Calm Calm 3.0 mph4.8 kmh 29.92 in1013.2 mb 0.03 in0.8 mm 0.00 in/hr0.0 mm/hr 0.03 in0.8 mm
06:53 AM 46.9°F8.3°C 43.3°F6.3°C 87% Calm Calm 3.0 mph4.8 kmh 29.93 in1013.5 mb 0.03 in0.8 mm 0.00 in/hr0.0 mm/hr 0.03 in0.8 mm
06:46 AM 47.1°F8.4°C 43.2°F6.2°C 86% Calm Calm 1.0 mph1.6 kmh 29.93 in1013.5 mb 0.03 in0.8 mm 0.00 in/hr0.0 mm/hr 0.03 in0.8 mm
06:39 AM 47.5°F8.6°C 43.5°F6.4°C 86% Calm Calm 1.0 mph1.6 kmh 29.93 in1013.5 mb 0.03 in0.8 mm 0.09 in/hr2.3 mm/hr 0.03 in0.8 mm
06:32 AM 47.8°F8.8°C 43.2°F6.2°C 84% Calm Calm 1.0 mph1.6 kmh 29.93 in1013.5 mb 0.02 in0.5 mm 0.09 in/hr2.3 mm/hr 0.03 in0.8 mm
06:25 AM 47.8°F8.8°C 42.6°F5.9°C 82% Calm Calm 5.0 mph8.0 kmh 29.93 in1013.5 mb 0.01 in0.3 mm 0.09 in/hr2.3 mm/hr 0.01 in0.3 mm
06:18 AM 47.8°F8.8°C 42.3°F5.7°C 81% Calm Calm 5.0 mph8.0 kmh 29.93 in1013.5 mb 0.00 in0.0 mm 0.00 in/hr0.0 mm/hr 0.00 in0.0 mm
06:11 AM 47.7°F8.7°C 42.1°F5.6°C 81% Calm Calm 4.0 mph6.4 kmh 29.93 in1013.5 mb 0.00 in0.0 mm 0.00 in/hr0.0 mm/hr 0.00 in0.0 mm
06:04 AM 47.5°F8.6°C 41.9°F5.5°C 81% Calm Calm 7.0 mph11.3 kmh 29.94 in1013.9 mb 0.00 in0.0 mm 0.00 in/hr0.0 mm/hr 0.00 in0.0 mm
05:57 AM 46.9°F8.3°C 41.7°F5.4°C 82% Calm Calm 4.0 mph6.4 kmh 29.94 in1013.9 mb 0.00 in0.0 mm 0.00 in/hr0.0 mm/hr 0.00 in0.0 mm
05:50 AM 46.8°F8.2°C 41.5°F5.3°C 82% Calm Calm 3.0 mph4.8 kmh 29.94 in1013.9 mb 0.00 in0.0 mm 0.00 in/hr0.0 mm/hr 0.00 in0.0 mm
05:43 AM 46.4°F8.0°C 41.2°F5.1°C 82% Calm Calm 4.0 mph6.4 kmh 29.94 in1013.9 mb 0.00 in0.0 mm 0.00 in/hr0.0 mm/hr 0.00 in0.0 mm
05:36 AM 46.0°F7.8°C 41.2°F5.1°C 83% Calm Calm 4.0 mph6.4 kmh 29.94 in1013.9 mb 0.00 in0.0 mm 0.00 in/hr0.0 mm/hr 0.00 in0.0 mm
05:29 AM 45.7°F7.6°C 40.8°F4.9°C 83% Calm Calm 4.0 mph6.4 kmh 29.94 in1013.9 mb 0.00 in0.0 mm 0.00 in/hr0.0 mm/hr 0.00 in0.0 mm
05:22 AM 45.7°F7.6°C 40.8°F4.9°C 83% Calm Calm 5.0 mph8.0 kmh 29.94 in1013.9 mb 0.00 in0.0 mm 0.00 in/hr0.0 mm/hr 0.00 in0.0 mm
05:15 AM 45.3°F7.4°C 40.5°F4.7°C 83% Calm Calm 1.0 mph1.6 kmh 29.94 in1013.9 mb 0.00 in0.0 mm 0.00 in/hr0.0 mm/hr 0.00 in0.0 mm
05:08 AM 45.3°F7.4°C 40.5°F4.7°C 83% Calm Calm 1.0 mph1.6 kmh 29.95 in1014.2 mb 0.00 in0.0 mm 0.00 in/hr0.0 mm/hr 0.00 in0.0 mm
05:01 AM 45.3°F7.4°C 40.5°F4.7°C 83% Calm Calm 1.0 mph1.6 kmh 29.95 in1014.2 mb 0.00 in0.0 mm 0.00 in/hr0.0 mm/hr 0.00 in0.0 mm
04:54 AM 45.1°F7.3°C 40.3°F4.6°C 83% Calm Calm 1.0 mph1.6 kmh 29.95 in1014.2 mb 0.00 in0.0 mm 0.00 in/hr0.0 mm/hr 0.00 in0.0 mm
04:47 AM 44.8°F7.1°C 39.9°F4.4°C 83% Calm Calm 4.0 mph6.4 kmh 29.95 in1014.2 mb 0.00 in0.0 mm 0.00 in/hr0.0 mm/hr 0.00 in0.0 mm
04:40 AM 44.4°F6.9°C 39.9°F4.4°C 84% Calm Calm 3.0 mph4.8 kmh 29.95 in1014.2 mb 0.00 in0.0 mm 0.00 in/hr0.0 mm/hr 0.00 in0.0 mm
04:33 AM 44.2°F6.8°C 40.1°F4.5°C 85% Calm Calm 1.0 mph1.6 kmh 29.96 in1014.6 mb 0.00 in0.0 mm 0.00 in/hr0.0 mm/hr 0.00 in0.0 mm
04:26 AM 44.2°F6.8°C 39.7°F4.3°C 84% Calm Calm -- 29.96 in1014.6 mb 0.00 in0.0 mm 0.00 in/hr0.0 mm/hr 0.00 in0.0 mm
04:19 AM 44.2°F6.8°C 39.7°F4.3°C 84% Calm Calm -- 29.96 in1014.6 mb 0.00 in0.0 mm 0.00 in/hr0.0 mm/hr 0.00 in0.0 mm
04:12 AM 44.1°F6.7°C 39.6°F4.2°C 84% Calm Calm 1.0 mph1.6 kmh 29.96 in1014.6 mb 0.00 in0.0 mm 0.00 in/hr0.0 mm/hr 0.00 in0.0 mm
04:05 AM 44.1°F6.7°C 39.6°F4.2°C 84% Calm Calm -- 29.96 in1014.6 mb 0.00 in0.0 mm 0.00 in/hr0.0 mm/hr 0.00 in0.0 mm
03:58 AM 43.9°F6.6°C 39.4°F4.1°C 84% Calm Calm -- 29.97 in1014.9 mb 0.00 in0.0 mm 0.00 in/hr0.0 mm/hr 0.00 in0.0 mm
03:51 AM 43.7°F6.5°C 39.2°F4.0°C 84% Calm Calm -- 29.97 in1014.9 mb 0.00 in0.0 mm 0.00 in/hr0.0 mm/hr 0.00 in0.0 mm
03:44 AM 43.5°F6.4°C 39.0°F3.9°C 84% Calm Calm -- 29.98 in1015.2 mb 0.00 in0.0 mm 0.00 in/hr0.0 mm/hr 0.00 in0.0 mm
03:37 AM 43.5°F6.4°C 39.0°F3.9°C 84% Calm Calm -- 29.98 in1015.2 mb 0.00 in0.0 mm 0.00 in/hr0.0 mm/hr 0.00 in0.0 mm
03:30 AM 43.5°F6.4°C 38.8°F3.8°C 83% Calm Calm -- 29.98 in1015.2 mb 0.00 in0.0 mm 0.00 in/hr0.0 mm/hr 0.00 in0.0 mm
03:23 AM 43.9°F6.6°C 38.7°F3.7°C 82% Calm Calm -- 29.98 in1015.2 mb 0.00 in0.0 mm 0.00 in/hr0.0 mm/hr 0.00 in0.0 mm
03:16 AM 44.2°F6.8°C 38.7°F3.7°C 81% Calm Calm -- 29.99 in1015.6 mb 0.00 in0.0 mm 0.00 in/hr0.0 mm/hr 0.00 in0.0 mm
03:09 AM 44.4°F6.9°C 39.0°F3.9°C 81% Calm Calm -- 29.99 in1015.6 mb 0.00 in0.0 mm 0.00 in/hr0.0 mm/hr 0.00 in0.0 mm
03:02 AM 44.8°F7.1°C 39.4°F4.1°C 81% Calm Calm -- 30.00 in1015.9 mb 0.00 in0.0 mm 0.00 in/hr0.0 mm/hr 0.00 in0.0 mm
02:55 AM 45.1°F7.3°C 39.6°F4.2°C 81% Calm Calm -- 30.00 in1015.9 mb 0.00 in0.0 mm 0.00 in/hr0.0 mm/hr 0.00 in0.0 mm
02:48 AM 45.1°F7.3°C 39.7°F4.3°C 81% Calm Calm -- 30.00 in1015.9 mb 0.00 in0.0 mm 0.00 in/hr0.0 mm/hr 0.00 in0.0 mm
02:41 AM 45.3°F7.4°C 39.6°F4.2°C 80% Calm Calm -- 30.01 in1016.3 mb 0.00 in0.0 mm 0.00 in/hr0.0 mm/hr 0.00 in0.0 mm
02:34 AM 45.3°F7.4°C 39.2°F4.0°C 79% Calm Calm -- 30.01 in1016.3 mb 0.00 in0.0 mm 0.00 in/hr0.0 mm/hr 0.00 in0.0 mm
02:27 AM 45.3°F7.4°C 39.0°F3.9°C 78% Calm Calm -- 30.01 in1016.3 mb 0.00 in0.0 mm 0.00 in/hr0.0 mm/hr 0.00 in0.0 mm
02:20 AM 45.3°F7.4°C 39.0°F3.9°C 78% Calm Calm -- 30.02 in1016.6 mb 0.00 in0.0 mm 0.00 in/hr0.0 mm/hr 0.00 in0.0 mm
02:13 AM 45.3°F7.4°C 39.0°F3.9°C 78% Calm Calm -- 30.01 in1016.3 mb 0.00 in0.0 mm 0.00 in/hr0.0 mm/hr 0.00 in0.0 mm
02:06 AM 45.3°F7.4°C 39.0°F3.9°C 78% Calm Calm -- 30.02 in1016.6 mb 0.00 in0.0 mm 0.00 in/hr0.0 mm/hr 0.00 in0.0 mm
01:59 AM 45.3°F7.4°C 39.0°F3.9°C 78% Calm Calm -- 30.02 in1016.6 mb 0.00 in0.0 mm 0.00 in/hr0.0 mm/hr 0.00 in0.0 mm
01:52 AM 45.3°F7.4°C 38.8°F3.8°C 78% Calm Calm -- 30.02 in1016.6 mb 0.00 in0.0 mm 0.00 in/hr0.0 mm/hr 0.00 in0.0 mm
01:45 AM 45.1°F7.3°C 38.7°F3.7°C 78% Calm Calm -- 30.02 in1016.6 mb 0.00 in0.0 mm 0.00 in/hr0.0 mm/hr 0.00 in0.0 mm
01:38 AM 45.1°F7.3°C 38.7°F3.7°C 78% Calm Calm -- 30.03 in1016.9 mb 0.00 in0.0 mm 0.00 in/hr0.0 mm/hr 0.00 in0.0 mm
01:31 AM 45.0°F7.2°C 38.5°F3.6°C 78% Calm Calm 1.0 mph1.6 kmh 30.03 in1016.9 mb 0.00 in0.0 mm 0.00 in/hr0.0 mm/hr 0.00 in0.0 mm
01:24 AM 44.8°F7.1°C 38.3°F3.5°C 78% Calm Calm 3.0 mph4.8 kmh 30.03 in1016.9 mb 0.00 in0.0 mm 0.00 in/hr0.0 mm/hr 0.00 in0.0 mm
01:17 AM 44.4°F6.9°C 38.5°F3.6°C 79% Calm Calm 1.0 mph1.6 kmh 30.03 in1016.9 mb 0.00 in0.0 mm 0.00 in/hr0.0 mm/hr 0.00 in0.0 mm
01:10 AM 44.1°F6.7°C 38.3°F3.5°C 80% Calm Calm 1.0 mph1.6 kmh 30.03 in1016.9 mb 0.00 in0.0 mm 0.00 in/hr0.0 mm/hr 0.00 in0.0 mm
01:03 AM 43.7°F6.5°C 38.3°F3.5°C 81% Calm Calm 5.0 mph8.0 kmh 30.03 in1016.9 mb 0.00 in0.0 mm 0.00 in/hr0.0 mm/hr 0.00 in0.0 mm
12:56 AM 43.2°F6.2°C 37.9°F3.3°C 82% Calm Calm 5.0 mph8.0 kmh 30.03 in1016.9 mb 0.00 in0.0 mm 0.00 in/hr0.0 mm/hr 0.00 in0.0 mm
12:49 AM 42.4°F5.8°C 37.9°F3.3°C 84% Calm Calm 1.0 mph1.6 kmh 30.03 in1016.9 mb 0.00 in0.0 mm 0.00 in/hr0.0 mm/hr 0.00 in0.0 mm
12:42 AM 42.1°F5.6°C 37.8°F3.2°C 85% Calm Calm 1.0 mph1.6 kmh 30.03 in1016.9 mb 0.00 in0.0 mm 0.00 in/hr0.0 mm/hr 0.00 in0.0 mm
12:35 AM 41.5°F5.3°C 37.8°F3.2°C 86% Calm Calm 1.0 mph1.6 kmh 30.03 in1016.9 mb 0.00 in0.0 mm 0.00 in/hr0.0 mm/hr 0.00 in0.0 mm
12:28 AM 41.4°F5.2°C 37.6°F3.1°C 86% Calm Calm -- 30.03 in1016.9 mb 0.00 in0.0 mm 0.00 in/hr0.0 mm/hr 0.00 in0.0 mm
12:21 AM 41.4°F5.2°C 37.6°F3.1°C 86% Calm Calm -- 30.03 in1016.9 mb 0.00 in0.0 mm 0.00 in/hr0.0 mm/hr 0.00 in0.0 mm
12:14 AM 41.4°F5.2°C 37.2°F2.9°C 85% Calm Calm -- 30.03 in1016.9 mb 0.00 in0.0 mm 0.00 in/hr0.0 mm/hr 0.00 in0.0 mm
12:07 AM 41.4°F5.2°C 37.2°F2.9°C 85% Calm Calm -- 30.03 in1016.9 mb 0.00 in0.0 mm 0.00 in/hr0.0 mm/hr 0.00 in0.0 mm
12:00 AM 41.4°F5.2°C 37.2°F2.9°C 85% Calm Calm -- 30.03 in1016.9 mb 0.00 in0.0 mm 0.00 in/hr0.0 mm/hr 0.00 in0.0 mm